Time;durP1;ratioP1;P1;durP2;ratioP2;P2;SDS_P1;SDS_P2;PMS_P1;PMS_P2;Temp;Humidity;BMP_temperature;BMP_pressure;BME280_temperature;BME280_humidity;BME280_pressure;Samples;Min_cycle;Max_cycle;Signal;HPM_P1;HPM_P2
2023/02/22 00:00:47;;;;;;;2.60;1.30;;;;;;;2.26;72.35;97918.83;78054;1308;3051612;-61
2023/02/22 00:03:23;;;;;;;1.50;1.00;;;;;;;2.27;72.41;97916.36;79159;1306;3011670;-60
2023/02/22 00:06:03;;;;;;;3.80;1.00;;;;;;;2.17;73.19;97916.02;78040;1299;3050932;-60
2023/02/22 00:08:35;;;;;;;1.40;0.80;;;;;;;2.17;73.41;97915.33;78024;1299;3069449;-60
2023/02/22 00:11:07;;;;;;;1.50;0.90;;;;;;;2.12;73.71;97917.65;79299;1299;3013133;-59
2023/02/22 00:13:36;;;;;;;2.00;1.20;;;;;;;2.00;73.89;97938.27;78139;1299;3055725;-60
2023/02/22 00:16:02;;;;;;;3.80;1.30;;;;;;;2.01;74.30;97925.82;78036;1294;5140753;-60
2023/02/22 00:18:29;;;;;;;1.40;0.70;;;;;;;2.00;74.28;97930.33;79336;1300;3011635;-60
2023/02/22 00:21:01;;;;;;;1.60;0.90;;;;;;;2.06;74.41;97932.48;78136;1300;3052533;-60
2023/02/22 00:23:29;;;;;;;2.40;1.20;;;;;;;2.09;74.08;97944.25;79310;1300;3012824;-60
2023/02/22 00:25:57;;;;;;;3.70;1.30;;;;;;;2.11;73.82;97945.88;79310;1299;3011849;-60
2023/02/22 00:28:29;;;;;;;1.50;1.00;;;;;;;2.01;74.19;97947.73;77948;1301;3057106;-60
2023/02/22 00:30:56;;;;;;;2.40;1.10;;;;;;;1.94;74.51;97958.13;79273;1297;3013111;-60
2023/02/22 00:33:22;;;;;;;2.70;1.00;;;;;;;2.00;74.57;97956.25;79472;1300;3011588;-60
2023/02/22 00:35:51;;;;;;;1.90;1.10;;;;;;;2.01;74.49;97962.78;78016;1302;3053465;-60
2023/02/22 00:38:18;;;;;;;1.40;0.90;;;;;;;2.00;74.26;97961.23;79279;1300;3012910;-60
2023/02/22 00:40:45;;;;;;;1.60;1.10;;;;;;;2.02;73.97;97969.29;79234;1300;3013077;-60
2023/02/22 00:43:15;;;;;;;0.80;0.60;;;;;;;1.95;73.76;97997.08;78029;1296;3056587;-60
2023/02/22 00:45:43;;;;;;;2.40;1.20;;;;;;;1.97;73.67;98004.55;79286;1297;3011705;-60
2023/02/22 00:48:09;;;;;;;2.40;0.80;;;;;;;1.85;74.20;97992.35;79583;1299;3012352;-60
2023/02/22 00:50:38;;;;;;;1.10;0.70;;;;;;;1.92;74.14;97992.54;78271;1310;3054110;-60
2023/02/22 00:53:06;;;;;;;4.70;1.20;;;;;;;1.87;74.21;97984.33;79406;1300;3013062;-60
2023/02/22 00:55:34;;;;;;;2.50;1.00;;;;;;;1.85;74.20;97994.65;79447;1300;3011608;-60
2023/02/22 00:58:03;;;;;;;1.40;0.70;;;;;;;1.77;74.81;98017.46;78304;1300;3057283;-60
2023/02/22 01:00:38;;;;;;;1.60;0.80;;;;;;;2.32;73.95;98037.90;79486;1299;3013586;-60
2023/02/22 01:03:07;;;;;;;1.30;0.80;;;;;;;2.87;71.91;98004.38;78130;1302;3050250;-60
2023/02/22 01:05:34;;;;;;;1.80;0.80;;;;;;;2.90;71.04;98013.04;79387;1300;3013728;-60
2023/02/22 01:08:01;;;;;;;0.90;0.60;;;;;;;2.71;71.66;98022.66;79357;1309;3011572;-60
2023/02/22 01:10:29;;;;;;;2.30;0.80;;;;;;;2.57;71.84;98029.25;78165;1300;3051658;-61
2023/02/22 01:13:03;;;;;;;1.50;0.90;;;;;;;2.31;72.86;98036.98;79139;1295;3013450;-61
2023/02/22 01:15:35;;;;;;;1.30;0.80;;;;;;;2.19;73.26;98048.40;78144;1298;3048738;-61
2023/02/22 01:18:02;;;;;;;3.20;0.90;;;;;;;2.14;73.55;98051.27;79308;1297;3011662;-59
2023/02/22 01:20:29;;;;;;;2.60;1.00;;;;;;;2.06;73.98;98050.27;79356;1300;3013102;-60
2023/02/22 01:22:58;;;;;;;1.60;0.80;;;;;;;1.98;74.39;98057.53;77870;1301;3052244;-61
2023/02/22 01:25:27;;;;;;;1.60;0.90;;;;;;;1.88;74.88;98071.80;79359;1295;3011894;-61
2023/02/22 01:27:56;;;;;;;1.30;1.00;;;;;;;1.68;75.74;98076.40;78146;1300;3026166;-60
2023/02/22 01:30:24;;;;;;;2.20;1.10;;;;;;;1.73;76.04;98070.80;79378;1296;3013416;-60
2023/02/22 01:32:54;;;;;;;3.60;1.50;;;;;;;1.75;75.74;98084.36;78759;1300;3011789;-60
2023/02/22 01:35:24;;;;;;;7.60;2.80;;;;;;;1.77;76.03;98086.85;79177;1300;3012983;-60
2023/02/22 01:37:52;;;;;;;5.00;2.60;;;;;;;1.78;75.72;98104.95;78631;1299;3011629;-60
2023/02/22 01:40:31;;;;;;;8.40;4.00;;;;;;;1.53;76.94;98097.27;79240;1300;3013365;-60
2023/02/22 01:43:24;;;;;;;4.80;2.80;;;;;;;1.68;77.29;98104.71;77971;1297;3068622;-61
2023/02/22 01:46:25;;;;;;;6.00;3.10;;;;;;;2.56;75.14;98112.95;78000;1300;3053060;-60
2023/02/22 01:49:01;;;;;;;5.00;2.40;;;;;;;2.98;72.85;98116.05;78055;1300;3057977;-60
2023/02/22 01:51:36;;;;;;;6.50;3.30;;;;;;;2.73;72.89;98129.77;78986;1296;3011496;-60
2023/02/22 01:54:21;;;;;;;8.50;3.10;;;;;;;2.54;73.18;98127.39;78814;1298;3011591;-60
2023/02/22 01:57:01;;;;;;;8.00;3.30;;;;;;;2.25;74.46;98125.86;77919;1300;3051580;-60
2023/02/22 01:59:31;;;;;;;5.10;2.90;;;;;;;2.10;74.83;98134.02;78138;1300;3054687;-61
2023/02/22 02:01:59;;;;;;;6.20;3.10;;;;;;;1.92;75.42;98135.23;79549;1298;3013204;-61
2023/02/22 02:04:28;;;;;;;3.80;2.50;;;;;;;1.88;75.77;98138.31;79002;1300;3011644;-61
2023/02/22 02:07:04;;;;;;;4.00;3.10;;;;;;;1.67;76.33;98148.28;79361;1298;3011621;-61
2023/02/22 02:09:36;;;;;;;3.00;2.30;;;;;;;1.45;77.79;98154.73;78101;1300;3068492;-61
2023/02/22 02:12:05;;;;;;;4.40;2.20;;;;;;;1.41;78.31;98166.66;79465;1297;3013331;-63
2023/02/22 02:14:40;;;;;;;2.40;1.70;;;;;;;1.39;79.34;98173.16;78074;1296;3055182;-61
2023/02/22 02:17:08;;;;;;;4.50;2.60;;;;;;;1.38;80.41;98171.80;79490;1298;3012941;-61
2023/02/22 02:19:56;;;;;;;3.10;2.00;;;;;;;1.17;81.80;98180.46;79108;1300;3011518;-61
2023/02/22 02:22:53;;;;;;;2.80;1.80;;;;;;;0.95;83.04;98194.66;78202;1300;3050438;-61
2023/02/22 02:25:43;;;;;;;2.80;2.00;;;;;;;1.60;81.94;98193.98;78117;1300;3055042;-62
2023/02/22 02:28:35;;;;;;;2.60;2.20;;;;;;;1.80;80.77;98203.27;78123;1300;3053617;-61
2023/02/22 02:31:03;;;;;;;4.10;2.60;;;;;;;1.50;81.28;98212.52;77818;1300;3070406;-61
2023/02/22 02:33:32;;;;;;;3.10;2.10;;;;;;;1.33;82.44;98209.45;79242;1297;3012570;-62
2023/02/22 02:36:29;;;;;;;4.10;2.60;;;;;;;1.05;83.58;98217.20;79499;1297;3011600;-61
2023/02/22 02:39:24;;;;;;;2.90;2.30;;;;;;;0.84;84.72;98217.89;77946;1298;3053325;-62
2023/02/22 02:41:52;;;;;;;7.80;2.90;;;;;;;0.60;86.14;98229.66;77813;1300;3050150;-62
2023/02/22 02:44:50;;;;;;;3.90;2.40;;;;;;;0.45;87.34;98239.26;79337;1300;3011714;-62
2023/02/22 02:47:27;;;;;;;1.80;1.30;;;;;;;0.64;87.69;98236.41;77953;1300;3053652;-62
2023/02/22 02:50:32;;;;;;;2.90;1.90;;;;;;;1.27;86.43;98250.91;78163;1299;3069928;-62
2023/02/22 02:53:03;;;;;;;2.80;2.20;;;;;;;1.82;83.25;98250.13;77658;1302;3052101;-61
2023/02/22 02:55:31;;;;;;;4.40;2.40;;;;;;;1.59;82.79;98251.49;79238;1297;3011804;-61
2023/02/22 02:57:59;;;;;;;3.50;2.70;;;;;;;1.33;83.77;98258.48;77920;1301;3029146;-61
2023/02/22 03:00:28;;;;;;;4.60;2.80;;;;;;;1.31;83.91;98271.13;79428;1300;3013472;-61
2023/02/22 03:03:22;;;;;;;4.30;3.00;;;;;;;1.13;84.35;98274.30;78170;1299;3027315;-62
2023/02/22 03:06:05;;;;;;;5.00;3.20;;;;;;;0.71;85.00;98291.30;78067;1300;3054471;-62
2023/02/22 03:08:49;;;;;;;4.10;2.90;;;;;;;0.65;85.21;98291.73;78083;1300;3053290;-61
2023/02/22 03:11:36;;;;;;;4.50;3.50;;;;;;;0.40;85.08;98306.47;77918;1296;3069460;-61
2023/02/22 03:14:16;;;;;;;5.40;4.00;;;;;;;0.44;84.83;98309.25;77999;1302;3052616;-61
2023/02/22 03:16:49;;;;;;;4.30;3.10;;;;;;;0.31;85.01;98311.11;78118;1300;3056514;-61
2023/02/22 03:19:28;;;;;;;5.70;3.80;;;;;;;0.84;83.95;98312.68;79194;1297;3011810;-62
2023/02/22 03:22:08;;;;;;;6.60;4.30;;;;;;;1.36;80.98;98309.39;77984;1296;3053880;-61
2023/02/22 03:25:06;;;;;;;7.80;4.80;;;;;;;1.32;80.29;98313.55;78032;1299;3051681;-62
2023/02/22 03:27:49;;;;;;;9.30;5.20;;;;;;;1.34;79.90;98319.68;77908;1303;3054159;-61
2023/02/22 03:30:51;;;;;;;7.00;5.00;;;;;;;1.01;79.98;98325.30;78033;1300;3053359;-61
2023/02/22 03:33:36;;;;;;;10.00;4.70;;;;;;;0.83;80.12;98331.20;77950;1301;3070744;-62
2023/02/22 03:36:23;;;;;;;6.90;4.30;;;;;;;0.60;80.30;98337.07;78046;1300;3052372;-61
2023/02/22 03:38:55;;;;;;;9.50;5.70;;;;;;;0.20;81.30;98349.74;78045;1295;3056837;-61
2023/02/22 03:41:24;;;;;;;9.00;5.40;;;;;;;0.20;81.32;98347.84;79351;1298;3013424;-61
2023/02/22 03:43:56;;;;;;;9.00;5.20;;;;;;;-0.04;82.12;98353.84;78768;1297;3011963;-61
2023/02/22 03:46:24;;;;;;;9.10;5.30;;;;;;;-0.15;83.38;98360.61;79274;1297;3011908;-60
2023/02/22 03:49:01;;;;;;;6.30;4.00;;;;;;;-0.19;83.42;98376.25;77934;1300;3027551;-60
2023/02/22 03:51:33;;;;;;;6.60;4.30;;;;;;;0.32;82.39;98381.52;77990;1297;3052658;-61
2023/02/22 03:54:02;;;;;;;7.10;4.70;;;;;;;0.80;80.17;98383.73;79326;1296;3013215;-60
2023/02/22 03:56:48;;;;;;;10.20;5.10;;;;;;;0.81;79.26;98387.30;78016;1299;3057180;-61
2023/02/22 03:59:24;;;;;;;7.20;5.00;;;;;;;0.61;79.56;98392.16;77948;1300;3050557;-61
2023/02/22 04:01:51;;;;;;;7.40;4.20;;;;;;;0.54;79.68;98401.06;79153;1295;3012022;-60
2023/02/22 04:04:20;;;;;;;9.10;5.10;;;;;;;0.26;79.92;98396.39;77962;1300;3049715;-61
2023/02/22 04:06:47;;;;;;;7.10;4.80;;;;;;;0.17;80.16;98402.37;79215;1300;3014061;-60
2023/02/22 04:09:18;;;;;;;8.00;4.90;;;;;;;0.03;80.57;98413.89;77944;1300;3070068;-60
2023/02/22 04:11:45;;;;;;;7.60;5.20;;;;;;;-0.13;81.26;98418.04;79452;1297;3013052;-60
2023/02/22 04:14:12;;;;;;;8.10;5.10;;;;;;;-0.03;81.44;98426.66;79266;1296;3012840;-61
2023/02/22 04:16:41;;;;;;;8.40;5.00;;;;;;;0.03;81.39;98429.55;78044;1296;3053397;-61
2023/02/22 04:19:09;;;;;;;9.30;5.20;;;;;;;0.02;81.60;98434.94;79156;1296;3012804;-61
2023/02/22 04:21:39;;;;;;;7.60;4.70;;;;;;;0.06;80.97;98444.41;77994;1300;3029739;-61
2023/02/22 04:24:10;;;;;;;8.40;5.30;;;;;;;-0.17;80.71;98447.44;79251;1300;3011613;-61
2023/02/22 04:26:39;;;;;;;8.70;5.30;;;;;;;-0.05;80.58;98453.58;78070;1300;3071630;-61
2023/02/22 04:29:07;;;;;;;4.80;3.20;;;;;;;-0.03;80.56;98453.19;79220;1296;3013180;-61
2023/02/22 04:31:39;;;;;;;6.30;3.90;;;;;;;0.57;79.59;98464.84;78101;1296;3050908;-61
2023/02/22 04:34:06;;;;;;;6.40;3.70;;;;;;;1.21;76.07;98471.29;79172;1300;3014860;-61
2023/02/22 04:36:37;;;;;;;8.60;4.20;;;;;;;1.49;74.75;98473.33;78087;1300;3053864;-61
2023/02/22 04:39:04;;;;;;;7.60;4.90;;;;;;;1.30;73.80;98481.14;79398;1297;3013492;-61
2023/02/22 04:41:31;;;;;;;11.70;5.40;;;;;;;1.03;74.75;98487.70;79459;1297;3011777;-62
2023/02/22 04:43:58;;;;;;;7.30;4.50;;;;;;;0.90;74.88;98495.23;78198;1300;3026980;-60
2023/02/22 04:46:26;;;;;;;6.20;4.50;;;;;;;0.67;75.82;98499.69;79370;1298;3011630;-61
2023/02/22 04:48:54;;;;;;;8.50;5.10;;;;;;;0.59;76.09;98508.40;79329;1296;3011887;-61
2023/02/22 04:51:25;;;;;;;7.40;5.00;;;;;;;0.43;76.60;98512.43;78093;1299;3052378;-61
2023/02/22 04:53:57;;;;;;;6.30;4.70;;;;;;;0.36;77.16;98518.84;79345;1296;3013054;-61
2023/02/22 04:56:25;;;;;;;6.70;4.70;;;;;;;0.23;76.94;98518.43;77933;1300;3068937;-62
2023/02/22 04:58:52;;;;;;;7.00;4.70;;;;;;;0.13;77.67;98528.91;79394;1295;3013487;-60
2023/02/22 05:01:19;;;;;;;9.10;5.60;;;;;;;0.14;77.38;98533.88;79404;1295;3011731;-62
2023/02/22 05:03:48;;;;;;;9.10;5.90;;;;;;;0.05;77.63;98536.60;78099;1298;3053039;-61
2023/02/22 05:06:16;;;;;;;8.00;4.50;;;;;;;0.10;78.11;98539.35;79276;1300;3013426;-60
2023/02/22 05:08:43;;;;;;;8.30;5.30;;;;;;;0.23;78.04;98541.87;79381;1296;3011879;-60
2023/02/22 05:11:12;;;;;;;8.40;5.10;;;;;;;0.16;77.30;98552.07;78018;1298;3069949;-61
2023/02/22 05:13:39;;;;;;;10.50;5.30;;;;;;;0.02;77.81;98551.66;79374;1296;3013683;-60
2023/02/22 05:16:06;;;;;;;11.60;5.90;;;;;;;0.13;77.80;98555.63;79315;1295;3011657;-60
2023/02/22 05:18:35;;;;;;;9.90;5.80;;;;;;;0.15;77.29;98567.44;78113;1297;3053949;-62
2023/02/22 05:21:01;;;;;;;12.90;6.00;;;;;;;0.11;77.48;98570.48;79221;1300;3012995;-61
2023/02/22 05:23:28;;;;;;;10.20;5.50;;;;;;;0.10;77.39;98572.06;79333;1299;3013004;-63
2023/02/22 05:25:57;;;;;;;12.40;5.50;;;;;;;0.03;77.77;98583.50;78168;1296;3027132;-61
2023/02/22 05:28:25;;;;;;;9.00;5.30;;;;;;;0.04;77.89;98592.92;79238;1296;3011694;-61
2023/02/22 05:30:51;;;;;;;10.30;5.80;;;;;;;0.06;77.84;98597.15;79520;1297;3011482;-61
2023/02/22 05:33:19;;;;;;;8.10;5.10;;;;;;;0.02;77.73;98601.27;77985;1299;3054256;-60
2023/02/22 05:35:46;;;;;;;8.90;6.00;;;;;;;0.04;77.93;98600.66;79470;1300;3013419;-61
2023/02/22 05:38:13;;;;;;;10.30;5.70;;;;;;;0.05;77.59;98602.55;79433;1296;3012226;-60
2023/02/22 05:40:42;;;;;;;10.10;5.90;;;;;;;-0.01;77.68;98607.38;78013;1300;3069208;-61
2023/02/22 05:43:08;;;;;;;10.80;5.50;;;;;;;-0.07;77.35;98614.62;79400;1295;3015926;-61
2023/02/22 05:45:35;;;;;;;10.60;5.80;;;;;;;-0.01;77.04;98625.96;79322;1299;3011959;-63
2023/02/22 05:48:03;;;;;;;5.80;3.80;;;;;;;0.02;77.04;98631.89;78061;1297;3026938;-62
2023/02/22 05:50:39;;;;;;;6.50;4.00;;;;;;;0.49;75.82;98640.73;78845;1299;3011961;-61
2023/02/22 05:53:06;;;;;;;7.90;4.10;;;;;;;1.12;73.17;98643.65;79275;1300;3013412;-61
2023/02/22 05:55:33;;;;;;;9.90;4.60;;;;;;;1.35;71.47;98643.14;79318;1300;3013106;-62
2023/02/22 05:58:04;;;;;;;6.50;4.10;;;;;;;1.41;71.49;98654.50;78083;1297;3028824;-62
2023/02/22 06:00:31;;;;;;;7.10;3.90;;;;;;;1.10;70.81;98663.70;79286;1296;3013125;-61
2023/02/22 06:03:05;;;;;;;9.10;4.70;;;;;;;0.58;70.57;98666.64;78873;1297;3011626;-61
2023/02/22 06:05:32;;;;;;;9.00;4.70;;;;;;;0.49;71.71;98670.40;79457;1294;3012097;-60
2023/02/22 06:08:02;;;;;;;9.30;5.40;;;;;;;0.37;72.66;98673.70;78202;1297;3054804;-61
2023/02/22 06:10:29;;;;;;;6.60;4.10;;;;;;;0.44;72.71;98679.86;79389;1294;3013295;-60
2023/02/22 06:12:56;;;;;;;6.10;4.10;;;;;;;0.29;72.22;98686.69;79211;1299;3011653;-60
2023/02/22 06:15:24;;;;;;;7.20;4.50;;;;;;;0.26;71.09;98694.18;78051;1299;3068449;-61
2023/02/22 06:17:52;;;;;;;8.50;4.40;;;;;;;0.19;70.88;98694.58;79230;1299;3013827;-60
2023/02/22 06:20:20;;;;;;;7.20;3.30;;;;;;;-0.01;70.48;98703.11;79237;1296;3012746;-61
2023/02/22 06:22:49;;;;;;;5.00;3.10;;;;;;;-0.19;70.65;98720.67;77963;1298;3054682;-61
2023/02/22 06:25:22;;;;;;;6.70;3.80;;;;;;;-0.43;71.34;98716.88;79284;1298;3011669;-61
2023/02/22 06:27:51;;;;;;;6.60;4.20;;;;;;;-0.47;71.23;98718.87;77969;1295;3050824;-61
2023/02/22 06:30:20;;;;;;;6.50;3.70;;;;;;;-0.39;71.31;98721.75;79215;1297;3013047;-60
2023/02/22 06:32:49;;;;;;;7.50;4.00;;;;;;;-0.31;71.53;98728.92;78821;1295;3013479;-60
2023/02/22 06:35:16;;;;;;;8.80;4.70;;;;;;;-0.36;71.57;98734.59;79318;1297;3013566;-61
2023/02/22 06:37:42;;;;;;;8.00;4.80;;;;;;;-0.40;72.02;98732.96;79172;1299;3013635;-60
2023/02/22 06:40:11;;;;;;;9.90;4.70;;;;;;;-0.23;71.80;98739.21;77983;1297;3029878;-60
2023/02/22 06:42:38;;;;;;;8.20;4.20;;;;;;;-0.20;71.62;98739.64;79304;1299;3013143;-60
2023/02/22 06:45:05;;;;;;;9.80;4.80;;;;;;;-0.13;71.85;98747.38;79250;1298;3011915;-61
2023/02/22 06:47:38;;;;;;;8.90;5.10;;;;;;;-0.35;72.74;98746.24;78100;1300;3051372;-61
2023/02/22 06:50:05;;;;;;;5.80;4.30;;;;;;;-0.26;73.23;98749.62;79297;1297;3013684;-63
2023/02/22 06:52:35;;;;;;;9.70;4.60;;;;;;;-0.04;73.22;98752.61;78712;1295;3011596;-61
2023/02/22 06:55:01;;;;;;;6.70;4.60;;;;;;;0.14;72.84;98753.80;79207;1299;3013557;-61
2023/02/22 06:57:29;;;;;;;8.20;4.40;;;;;;;0.28;71.89;98758.91;79218;1294;3011609;-61
2023/02/22 06:59:57;;;;;;;8.40;4.50;;;;;;;0.28;71.60;98765.29;78036;1298;3026796;-60
2023/02/22 07:02:24;;;;;;;7.10;4.10;;;;;;;0.37;71.50;98764.51;79239;1295;3018803;-60
2023/02/22 07:04:50;;;;;;;7.50;4.60;;;;;;;0.38;71.26;98767.23;79171;1299;3013030;-61
2023/02/22 07:07:21;;;;;;;9.20;4.80;;;;;;;0.31;71.41;98763.14;78290;1296;3048654;-61
2023/02/22 07:09:48;;;;;;;8.30;4.60;;;;;;;0.16;71.84;98766.85;79365;1297;3013479;-61
2023/02/22 07:12:14;;;;;;;8.30;5.30;;;;;;;0.26;71.56;98769.30;79216;1297;3011573;-60
2023/02/22 07:14:44;;;;;;;13.20;6.20;;;;;;;0.36;71.68;98772.27;78055;1299;3051917;-62
2023/02/22 07:17:11;;;;;;;11.30;6.00;;;;;;;0.41;71.53;98778.15;79184;1299;3013009;-61
2023/02/22 07:19:38;;;;;;;11.90;6.10;;;;;;;0.46;71.15;98782.67;79198;1296;3011790;-61
2023/02/22 07:22:06;;;;;;;12.00;6.60;;;;;;;0.48;70.61;98784.84;77947;1300;3049379;-61
2023/02/22 07:24:33;;;;;;;13.60;6.90;;;;;;;0.46;70.66;98791.09;79309;1296;3013697;-60
2023/02/22 07:27:01;;;;;;;10.30;5.90;;;;;;;0.36;70.76;98794.86;79227;1300;3013662;-61
2023/02/22 07:29:30;;;;;;;11.00;5.30;;;;;;;0.37;70.98;98795.84;78017;1297;3052508;-61
2023/02/22 07:31:58;;;;;;;10.80;6.00;;;;;;;0.42;71.12;98799.67;79293;1296;3013620;-60
2023/02/22 07:34:24;;;;;;;10.10;5.30;;;;;;;0.42;71.15;98806.39;79305;1300;3011521;-62
2023/02/22 07:36:52;;;;;;;9.30;5.00;;;;;;;0.42;71.38;98804.48;77967;1299;3048926;-60
2023/02/22 07:39:19;;;;;;;13.60;5.80;;;;;;;0.31;71.69;98810.49;79230;1298;3013803;-61
2023/02/22 07:41:46;;;;;;;10.80;6.00;;;;;;;0.15;72.00;98812.86;79289;1297;3011813;-63
2023/02/22 07:44:24;;;;;;;11.80;5.60;;;;;;;0.05;73.56;98818.33;78031;1300;3053525;-60
2023/02/22 07:46:50;;;;;;;13.60;5.90;;;;;;;0.17;73.35;98818.13;79245;1299;3013208;-60
2023/02/22 07:49:23;;;;;;;11.60;5.60;;;;;;;0.27;73.48;98824.23;78841;1297;3013188;-61
2023/02/22 07:51:49;;;;;;;9.40;5.80;;;;;;;0.18;73.95;98826.89;79323;1297;3020923;-60
2023/02/22 07:54:16;;;;;;;11.60;5.70;;;;;;;0.29;73.63;98835.36;79226;1297;3013247;-60
2023/02/22 07:56:46;;;;;;;10.00;6.10;;;;;;;0.29;73.39;98841.91;77994;1300;3026124;-60
2023/02/22 07:59:13;;;;;;;10.80;5.90;;;;;;;0.26;73.87;98840.27;79370;1300;3013093;-61
2023/02/22 08:01:41;;;;;;;11.90;6.70;;;;;;;0.17;74.39;98847.23;79200;1297;3013379;-61
2023/02/22 08:04:09;;;;;;;12.70;6.70;;;;;;;0.38;74.36;98845.79;78038;1300;3052687;-61
2023/02/22 08:06:35;;;;;;;13.80;6.90;;;;;;;0.41;73.72;98855.69;79321;1294;3018478;-61
2023/02/22 08:09:02;;;;;;;13.40;7.80;;;;;;;0.35;73.27;98858.95;79175;1300;3011627;-60
2023/02/22 08:11:30;;;;;;;14.00;7.00;;;;;;;0.12;73.37;98863.24;78002;1299;3028801;-60
2023/02/22 08:13:56;;;;;;;12.70;6.90;;;;;;;0.12;73.76;98863.94;79336;1297;3013143;-60
2023/02/22 08:16:23;;;;;;;15.50;7.80;;;;;;;0.19;73.34;98871.64;79373;1300;3011900;-61
2023/02/22 08:18:51;;;;;;;17.20;8.10;;;;;;;0.19;72.88;98872.49;78086;1297;3029107;-61
2023/02/22 08:21:18;;;;;;;14.30;8.00;;;;;;;-0.12;71.95;98889.36;79236;1300;3018946;-61
2023/02/22 08:23:45;;;;;;;16.30;7.30;;;;;;;-0.66;70.62;98893.80;79304;1296;3011610;-61
2023/02/22 08:26:14;;;;;;;14.00;7.90;;;;;;;-0.86;71.08;98894.97;78077;1302;3026628;-60
2023/02/22 08:28:42;;;;;;;14.80;7.60;;;;;;;-0.81;71.20;98900.17;79448;1300;3011813;-60
2023/02/22 08:31:09;;;;;;;13.20;7.00;;;;;;;-0.96;71.20;98897.76;79176;1295;3013308;-61
2023/02/22 08:33:38;;;;;;;16.60;7.40;;;;;;;-1.12;71.37;98904.14;78060;1296;3050991;-60
2023/02/22 08:36:05;;;;;;;16.20;8.50;;;;;;;-0.93;71.39;98902.01;79286;1296;3013704;-61
2023/02/22 08:38:33;;;;;;;16.00;8.90;;;;;;;-0.73;71.09;98904.63;79258;1296;3011560;-61
2023/02/22 08:41:01;;;;;;;17.60;8.70;;;;;;;-0.56;70.60;98901.48;77938;1300;3050103;-61
2023/02/22 08:43:28;;;;;;;18.80;9.00;;;;;;;-0.57;70.32;98907.01;79396;1295;3013176;-61
2023/02/22 08:45:56;;;;;;;18.50;9.10;;;;;;;-0.41;70.44;98914.17;79412;1295;3011668;-60
2023/02/22 08:48:24;;;;;;;17.90;8.80;;;;;;;-0.11;69.82;98919.80;78012;1296;3052366;-62
2023/02/22 08:50:53;;;;;;;15.50;8.10;;;;;;;-0.17;69.71;98928.20;79146;1300;3011838;-63
2023/02/22 08:53:22;;;;;;;21.40;9.30;;;;;;;-0.22;70.21;98925.59;78928;1297;3011521;-61
2023/02/22 08:55:51;;;;;;;17.60;9.80;;;;;;;-0.31;70.53;98933.05;79568;1297;3012765;-60
2023/02/22 08:58:20;;;;;;;18.20;9.70;;;;;;;-0.40;71.18;98939.27;78784;1297;3013150;-60
2023/02/22 09:00:48;;;;;;;21.70;10.00;;;;;;;-0.34;70.58;98935.36;79283;1299;3018765;-62
2023/02/22 09:03:15;;;;;;;23.00;10.50;;;;;;;-0.18;70.28;98934.09;79426;1299;3011573;-60
2023/02/22 09:05:43;;;;;;;23.70;10.30;;;;;;;0.05;69.09;98938.85;77992;1299;3053141;-60
2023/02/22 09:08:10;;;;;;;24.10;11.30;;;;;;;0.18;68.31;98931.27;79368;1296;3021346;-60
2023/02/22 09:10:37;;;;;;;18.80;9.50;;;;;;;0.34;67.33;98926.54;79365;1300;3013201;-61
2023/02/22 09:13:07;;;;;;;20.90;9.80;;;;;;;0.84;66.74;98921.49;77991;1296;3049402;-61
2023/02/22 09:15:35;;;;;;;20.20;9.90;;;;;;;1.15;65.34;98915.89;79208;1299;3013168;-61
2023/02/22 09:18:01;;;;;;;19.20;9.80;;;;;;;1.41;63.27;98925.45;79244;1300;3011760;-61
2023/02/22 09:20:30;;;;;;;18.30;9.80;;;;;;;1.50;62.04;98933.80;78454;1299;3052490;-61
2023/02/22 09:22:56;;;;;;;18.90;10.30;;;;;;;1.33;61.53;98942.77;79487;1297;3011583;-60
2023/02/22 09:25:28;;;;;;;17.70;8.40;;;;;;;1.42;62.08;98949.21;78751;1298;3011932;-63
2023/02/22 09:27:56;;;;;;;17.20;9.80;;;;;;;1.13;62.28;98956.17;79397;1300;3013780;-60
2023/02/22 09:30:24;;;;;;;19.90;9.40;;;;;;;0.77;62.46;98956.88;79372;1296;3011668;-61
2023/02/22 09:32:54;;;;;;;16.90;9.20;;;;;;;0.71;63.07;98957.55;78466;1296;3052103;-62
2023/02/22 09:35:25;;;;;;;15.40;8.90;;;;;;;0.30;62.90;98968.67;79552;1297;3012869;-61
2023/02/22 09:37:58;;;;;;;16.20;8.00;;;;;;;0.13;63.77;98969.66;78052;1299;3053262;-61
2023/02/22 09:40:28;;;;;;;17.90;8.80;;;;;;;-0.31;64.83;98974.52;79510;1296;3011454;-60
2023/02/22 09:43:06;;;;;;;18.40;8.70;;;;;;;-0.13;65.09;98964.09;78244;1296;3050005;-61
2023/02/22 09:45:38;;;;;;;18.60;9.70;;;;;;;-0.08;65.02;98964.49;78141;1297;3054222;-61
2023/02/22 09:48:06;;;;;;;21.50;9.30;;;;;;;0.10;64.22;98967.98;79300;1297;3012171;-60
2023/02/22 09:50:41;;;;;;;20.20;10.00;;;;;;;0.16;63.23;98961.64;77993;1300;3053655;-60
2023/02/22 09:53:28;;;;;;;18.80;9.20;;;;;;;0.29;62.42;98960.42;78760;1300;3012755;-60
2023/02/22 09:56:03;;;;;;;16.90;7.90;;;;;;;0.43;61.65;98959.70;78077;1299;3053499;-62
2023/02/22 09:59:03;;;;;;;16.10;8.00;;;;;;;0.47;61.01;98959.10;78211;1297;3068571;-61
2023/02/22 10:01:45;;;;;;;17.60;8.80;;;;;;;0.70;61.06;98958.95;78068;1295;3053440;-61
2023/02/22 10:04:40;;;;;;;22.60;9.90;;;;;;;0.76;60.42;98963.79;78084;1296;3057761;-60
2023/02/22 10:07:25;;;;;;;22.50;8.70;;;;;;;0.79;59.91;98958.54;78500;1296;3051290;-61
2023/02/22 10:09:57;;;;;;;16.50;8.80;;;;;;;0.68;60.13;98968.67;78033;1300;3053314;-60
2023/02/22 10:12:48;;;;;;;25.10;10.10;;;;;;;0.18;61.26;98972.61;79262;1300;3019475;-60
2023/02/22 10:15:31;;;;;;;18.90;8.80;;;;;;;0.26;61.93;98971.73;78059;1299;3052506;-60
2023/02/22 10:18:14;;;;;;;20.50;9.00;;;;;;;0.22;62.01;98975.45;78326;1297;3069947;-60
2023/02/22 10:20:47;;;;;;;20.60;10.10;;;;;;;0.17;62.67;98973.68;77992;1297;3051762;-60
2023/02/22 10:23:24;;;;;;;21.80;11.40;;;;;;;0.13;63.14;98974.45;79270;1294;3013724;-60
2023/02/22 10:25:56;;;;;;;23.90;9.40;;;;;;;0.32;63.63;98979.66;77985;1299;3049761;-60
2023/02/22 10:28:25;;;;;;;18.60;9.80;;;;;;;0.40;63.17;98981.52;79603;1297;3011716;-60
2023/02/22 10:30:57;;;;;;;18.20;9.40;;;;;;;0.28;62.88;98982.34;78126;1297;3048174;-60
2023/02/22 10:33:28;;;;;;;15.30;8.70;;;;;;;0.08;61.83;98982.88;79286;1297;3011832;-60
2023/02/22 10:35:56;;;;;;;18.40;8.90;;;;;;;0.16;61.52;98980.06;78093;1300;3053467;-60
2023/02/22 10:38:25;;;;;;;16.70;8.90;;;;;;;0.27;61.58;98980.64;79383;1300;3013041;-61
2023/02/22 10:41:09;;;;;;;18.80;8.80;;;;;;;0.28;61.18;98982.68;79142;1299;3011612;-61
2023/02/22 10:43:40;;;;;;;17.40;9.00;;;;;;;0.10;61.17;98982.64;77983;1296;3049176;-60
2023/02/22 10:46:11;;;;;;;20.10;9.00;;;;;;;0.37;61.29;98983.98;79337;1299;3012530;-59
2023/02/22 10:48:40;;;;;;;18.10;8.50;;;;;;;0.51;60.71;98986.72;78111;1300;3049116;-60
2023/02/22 10:51:08;;;;;;;20.00;9.40;;;;;;;0.48;60.27;98987.83;79197;1300;3014289;-60
2023/02/22 10:53:37;;;;;;;18.40;9.40;;;;;;;0.27;60.16;98991.66;79182;1295;3011843;-60
2023/02/22 10:56:22;;;;;;;19.30;9.10;;;;;;;0.25;60.25;98991.55;78059;1297;3052351;-60
2023/02/22 10:59:01;;;;;;;17.50;8.70;;;;;;;0.27;59.95;98994.77;77911;1296;3056426;-60
2023/02/22 11:01:31;;;;;;;17.60;8.80;;;;;;;0.47;59.55;98999.93;78007;1300;3049721;-60
2023/02/22 11:04:14;;;;;;;21.30;10.40;;;;;;;0.25;59.07;98999.66;79329;1295;3013146;-60
2023/02/22 11:06:44;;;;;;;18.10;8.90;;;;;;;0.34;58.89;98998.55;78055;1300;3051210;-61
2023/02/22 11:09:21;;;;;;;15.80;7.90;;;;;;;0.21;59.10;99003.38;79523;1300;3012823;-61
2023/02/22 11:12:08;;;;;;;15.00;8.00;;;;;;;0.08;59.14;99008.69;78119;1300;3051323;-60
2023/02/22 11:14:36;;;;;;;13.40;6.90;;;;;;;-0.15;59.79;99012.17;78004;1297;3069861;-60
2023/02/22 11:17:08;;;;;;;15.10;7.30;;;;;;;-0.17;60.12;99012.73;79152;1296;3012780;-60
2023/02/22 11:19:37;;;;;;;17.40;8.30;;;;;;;-0.11;60.07;99009.86;78026;1300;3055922;-60
2023/02/22 11:22:04;;;;;;;17.00;8.20;;;;;;;-0.08;59.85;99013.56;79423;1296;3014024;-62
2023/02/22 11:24:31;;;;;;;15.80;7.50;;;;;;;-0.06;59.60;99006.98;79223;1298;3011670;-60
2023/02/22 11:27:01;;;;;;;14.90;8.00;;;;;;;-0.16;59.99;99012.23;78096;1300;3054094;-60
2023/02/22 11:29:32;;;;;;;13.70;7.50;;;;;;;-0.13;60.04;99014.05;79263;1299;3013741;-60
2023/02/22 11:32:10;;;;;;;17.40;8.20;;;;;;;-0.24;60.10;99010.51;78073;1299;3069830;-60
2023/02/22 11:34:43;;;;;;;18.30;8.00;;;;;;;-0.21;60.48;99013.52;78328;1299;3053420;-60
2023/02/22 11:37:16;;;;;;;16.40;8.10;;;;;;;0.07;59.78;99014.55;79229;1297;3012784;-60
2023/02/22 11:39:44;;;;;;;18.20;8.50;;;;;;;0.21;59.69;99011.30;78817;1297;3051221;-61